sensor_id;sensor_type;location;lat;lon;timestamp;pressure;altitude;pressure_sealevel;temperature;humidity
8501;BME280;4288;48.484;10.024;2024-01-06T00:02:26;94377.66;;;7.03;nan
8501;BME280;4288;48.484;10.024;2024-01-06T00:04:55;94373.84;;;7.04;nan
8501;BME280;4288;48.484;10.024;2024-01-06T00:07:22;94374.22;;;7.06;nan
8501;BME280;4288;48.484;10.024;2024-01-06T00:09:50;94375.72;;;7.14;nan
8501;BME280;4288;48.484;10.024;2024-01-06T00:12:17;94379.16;;;7.11;nan
8501;BME280;4288;48.484;10.024;2024-01-06T00:14:45;94371.94;;;7.12;nan
8501;BME280;4288;48.484;10.024;2024-01-06T00:17:12;94371.19;;;7.04;nan
8501;BME280;4288;48.484;10.024;2024-01-06T00:19:40;94371.19;;;7.11;nan
8501;BME280;4288;48.484;10.024;2024-01-06T00:22:09;94371.56;;;7.17;nan
8501;BME280;4288;48.484;10.024;2024-01-06T00:24:36;94369.34;;;6.98;nan
8501;BME280;4288;48.484;10.024;2024-01-06T00:27:04;94375.00;;;7.07;nan
8501;BME280;4288;48.484;10.024;2024-01-06T00:29:31;94373.09;;;7.07;nan
8501;BME280;4288;48.484;10.024;2024-01-06T00:31:58;94378.81;;;6.99;nan
8501;BME280;4288;48.484;10.024;2024-01-06T00:34:26;94380.34;;;6.93;nan
8501;BME280;4288;48.484;10.024;2024-01-06T00:36:53;94384.19;;;6.78;nan
8501;BME280;4288;48.484;10.024;2024-01-06T00:39:22;94389.13;;;6.72;nan
8501;BME280;4288;48.484;10.024;2024-01-06T00:41:49;94390.63;;;6.70;nan
8501;BME280;4288;48.484;10.024;2024-01-06T00:44:17;94386.84;;;6.78;nan
8501;BME280;4288;48.484;10.024;2024-01-06T00:46:44;94379.63;;;6.71;nan
8501;BME280;4288;48.484;10.024;2024-01-06T00:49:12;94384.91;;;6.85;nan
8501;BME280;4288;48.484;10.024;2024-01-06T00:51:39;94386.03;;;6.91;nan
8501;BME280;4288;48.484;10.024;2024-01-06T00:54:06;94376.94;;;6.89;nan
8501;BME280;4288;48.484;10.024;2024-01-06T00:56:35;94380.75;;;6.88;nan
8501;BME280;4288;48.484;10.024;2024-01-06T00:59:02;94379.56;;;6.92;nan
8501;BME280;4288;48.484;10.024;2024-01-06T01:01:30;94373.53;;;6.81;nan
8501;BME280;4288;48.484;10.024;2024-01-06T01:03:57;94380.72;;;6.91;nan
8501;BME280;4288;48.484;10.024;2024-01-06T01:06:24;94389.84;;;6.83;nan
8501;BME280;4288;48.484;10.024;2024-01-06T01:08:52;94390.59;;;6.87;nan
8501;BME280;4288;48.484;10.024;2024-01-06T01:11:20;94392.88;;;6.85;nan
8501;BME280;4288;48.484;10.024;2024-01-06T01:13:49;94396.69;;;6.84;nan
8501;BME280;4288;48.484;10.024;2024-01-06T01:16:16;94401.22;;;6.77;nan
8501;BME280;4288;48.484;10.024;2024-01-06T01:18:43;94404.66;;;6.77;nan
8501;BME280;4288;48.484;10.024;2024-01-06T01:21:11;94400.88;;;6.82;nan
8501;BME280;4288;48.484;10.024;2024-01-06T01:23:38;94406.56;;;6.80;nan
8501;BME280;4288;48.484;10.024;2024-01-06T01:26:06;94406.94;;;6.82;nan
8501;BME280;4288;48.484;10.024;2024-01-06T01:28:33;94411.09;;;6.80;nan
8501;BME280;4288;48.484;10.024;2024-01-06T01:31:02;94411.13;;;6.66;nan
8501;BME280;4288;48.484;10.024;2024-01-06T01:33:29;94408.84;;;6.75;nan
8501;BME280;4288;48.484;10.024;2024-01-06T01:35:56;94414.91;;;6.68;nan
8501;BME280;4288;48.484;10.024;2024-01-06T01:38:24;94411.50;;;6.71;nan
8501;BME280;4288;48.484;10.024;2024-01-06T01:40:51;94416.06;;;6.71;nan
8501;BME280;4288;48.484;10.024;2024-01-06T01:43:19;94417.56;;;6.61;nan
8501;BME280;4288;48.484;10.024;2024-01-06T01:45:50;94422.50;;;6.66;nan
8501;BME280;4288;48.484;10.024;2024-01-06T01:48:21;94419.47;;;6.61;nan
8501;BME280;4288;48.484;10.024;2024-01-06T01:50:49;94423.25;;;6.60;nan
8501;BME280;4288;48.484;10.024;2024-01-06T01:53:17;94425.91;;;6.63;nan
8501;BME280;4288;48.484;10.024;2024-01-06T01:55:45;94420.22;;;6.68;nan
8501;BME280;4288;48.484;10.024;2024-01-06T01:58:14;94428.94;;;6.62;nan
8501;BME280;4288;48.484;10.024;2024-01-06T02:00:43;94424.41;;;6.62;nan
8501;BME280;4288;48.484;10.024;2024-01-06T02:03:12;94427.44;;;6.50;nan
8501;BME280;4288;48.484;10.024;2024-01-06T02:05:42;94422.13;;;6.54;nan
8501;BME280;4288;48.484;10.024;2024-01-06T02:08:10;94421.75;;;6.55;nan
8501;BME280;4288;48.484;10.024;2024-01-06T02:10:37;94430.84;;;6.54;nan
8501;BME280;4288;48.484;10.024;2024-01-06T02:13:09;94431.22;;;6.56;nan
8501;BME280;4288;48.484;10.024;2024-01-06T02:15:36;94435.00;;;6.52;nan
8501;BME280;4288;48.484;10.024;2024-01-06T02:18:05;94430.47;;;6.56;nan
8501;BME280;4288;48.484;10.024;2024-01-06T02:20:32;94435.00;;;6.48;nan
8501;BME280;4288;48.484;10.024;2024-01-06T02:23:01;94430.09;;;6.57;nan
8501;BME280;4288;48.484;10.024;2024-01-06T02:25:28;94433.88;;;6.60;nan
8501;BME280;4288;48.484;10.024;2024-01-06T02:27:56;94438.81;;;6.51;nan
8501;BME280;4288;48.484;10.024;2024-01-06T02:30:23;94438.03;;;6.54;nan
8501;BME280;4288;48.484;10.024;2024-01-06T02:32:51;94448.66;;;6.54;nan
8501;BME280;4288;48.484;10.024;2024-01-06T02:35:19;94448.28;;;6.66;nan
8501;BME280;4288;48.484;10.024;2024-01-06T02:37:46;94451.34;;;6.57;nan
8501;BME280;4288;48.484;10.024;2024-01-06T02:40:15;94446.41;;;6.59;nan
8501;BME280;4288;48.484;10.024;2024-01-06T02:42:43;94447.13;;;6.46;nan
8501;BME280;4288;48.484;10.024;2024-01-06T02:45:10;94454.72;;;6.54;nan
8501;BME280;4288;48.484;10.024;2024-01-06T02:47:37;94455.13;;;6.56;nan
8501;BME280;4288;48.484;10.024;2024-01-06T02:50:06;94454.75;;;6.47;nan
8501;BME280;4288;48.484;10.024;2024-01-06T02:52:33;94460.78;;;6.44;nan
8501;BME280;4288;48.484;10.024;2024-01-06T02:55:01;94461.56;;;6.38;nan
8501;BME280;4288;48.484;10.024;2024-01-06T02:57:30;94457.03;;;6.42;nan
8501;BME280;4288;48.484;10.024;2024-01-06T02:59:57;94457.38;;;6.37;nan
8501;BME280;4288;48.484;10.024;2024-01-06T03:02:25;94460.03;;;6.40;nan
8501;BME280;4288;48.484;10.024;2024-01-06T03:04:52;94464.59;;;6.47;nan
8501;BME280;4288;48.484;10.024;2024-01-06T03:07:20;94458.53;;;6.36;nan
8501;BME280;4288;48.484;10.024;2024-01-06T03:09:48;94461.56;;;6.38;nan
8501;BME280;4288;48.484;10.024;2024-01-06T03:12:15;94457.41;;;6.44;nan
8501;BME280;4288;48.484;10.024;2024-01-06T03:14:44;94464.97;;;6.49;nan
8501;BME280;4288;48.484;10.024;2024-01-06T03:17:11;94466.50;;;6.36;nan
8501;BME280;4288;48.484;10.024;2024-01-06T03:19:39;94471.00;;;6.28;nan
8501;BME280;4288;48.484;10.024;2024-01-06T03:22:06;94470.66;;;6.37;nan
8501;BME280;4288;48.484;10.024;2024-01-06T03:24:34;94480.50;;;6.25;nan
8501;BME280;4288;48.484;10.024;2024-01-06T03:27:01;94477.84;;;6.22;nan
8501;BME280;4288;48.484;10.024;2024-01-06T03:29:28;94474.41;;;6.32;nan
8501;BME280;4288;48.484;10.024;2024-01-06T03:31:57;94471.34;;;6.12;nan
8501;BME280;4288;48.484;10.024;2024-01-06T03:34:24;94479.34;;;6.30;nan
8501;BME280;4288;48.484;10.024;2024-01-06T03:36:52;94464.97;;;6.24;nan
8501;BME280;4288;48.484;10.024;2024-01-06T03:39:19;94466.47;;;6.32;nan
8501;BME280;4288;48.484;10.024;2024-01-06T03:41:47;94469.13;;;6.46;nan
8501;BME280;4288;48.484;10.024;2024-01-06T03:44:15;94465.72;;;6.32;nan
8501;BME280;4288;48.484;10.024;2024-01-06T03:46:42;94464.19;;;6.27;nan
8501;BME280;4288;48.484;10.024;2024-01-06T03:49:11;94464.97;;;6.24;nan
8501;BME280;4288;48.484;10.024;2024-01-06T03:51:38;94469.13;;;6.21;nan
8501;BME280;4288;48.484;10.024;2024-01-06T03:54:06;94474.44;;;6.25;nan
8501;BME280;4288;48.484;10.024;2024-01-06T03:56:33;94481.63;;;6.21;nan
8501;BME280;4288;48.484;10.024;2024-01-06T03:59:00;94478.59;;;6.22;nan
8501;BME280;4288;48.484;10.024;2024-01-06T04:01:28;94474.44;;;6.25;nan
8501;BME280;4288;48.484;10.024;2024-01-06T04:03:55;94478.97;;;6.21;nan
8501;BME280;4288;48.484;10.024;2024-01-06T04:06:24;94481.97;;;6.09;nan
8501;BME280;4288;48.484;10.024;2024-01-06T04:08:52;94481.97;;;6.12;nan
8501;BME280;4288;48.484;10.024;2024-01-06T04:11:20;94483.88;;;6.15;nan
8501;BME280;4288;48.484;10.024;2024-01-06T04:13:48;94480.84;;;6.20;nan
8501;BME280;4288;48.484;10.024;2024-01-06T04:16:15;94484.66;;;6.23;nan
8501;BME280;4288;48.484;10.024;2024-01-06T04:18:43;94478.16;;;6.03;nan
8501;BME280;4288;48.484;10.024;2024-01-06T04:21:10;94481.97;;;6.05;nan
8501;BME280;4288;48.484;10.024;2024-01-06T04:23:39;94475.16;;;6.11;nan
8501;BME280;4288;48.484;10.024;2024-01-06T04:26:06;94472.88;;;6.10;nan
8501;BME280;4288;48.484;10.024;2024-01-06T04:28:34;94480.47;;;6.15;nan
8501;BME280;4288;48.484;10.024;2024-01-06T04:31:01;94485.78;;;6.15;nan
8501;BME280;4288;48.484;10.024;2024-01-06T04:33:28;94485.00;;;6.04;nan
8501;BME280;4288;48.484;10.024;2024-01-06T04:35:57;94491.03;;;5.97;nan
8501;BME280;4288;48.484;10.024;2024-01-06T04:38:25;94491.41;;;5.96;nan
8501;BME280;4288;48.484;10.024;2024-01-06T04:40:53;94498.59;;;5.88;nan
8501;BME280;4288;48.484;10.024;2024-01-06T04:43:21;94503.13;;;5.88;nan
8501;BME280;4288;48.484;10.024;2024-01-06T04:45:48;94499.38;;;6.03;nan
8501;BME280;4288;48.484;10.024;2024-01-06T04:48:17;94499.00;;;6.01;nan
8501;BME280;4288;48.484;10.024;2024-01-06T04:50:44;94502.44;;;6.08;nan
8501;BME280;4288;48.484;10.024;2024-01-06T04:53:11;94507.66;;;5.84;nan
8501;BME280;4288;48.484;10.024;2024-01-06T04:55:39;94507.69;;;5.91;nan
8501;BME280;4288;48.484;10.024;2024-01-06T04:58:07;94513.69;;;5.81;nan
8501;BME280;4288;48.484;10.024;2024-01-06T05:00:35;94515.25;;;5.89;nan
8501;BME280;4288;48.484;10.024;2024-01-06T05:03:03;94521.72;;;5.98;nan
8501;BME280;4288;48.484;10.024;2024-01-06T05:05:30;94522.84;;;5.94;nan
8501;BME280;4288;48.484;10.024;2024-01-06T05:07:58;94513.69;;;5.81;nan
8501;BME280;4288;48.484;10.024;2024-01-06T05:10:26;94522.03;;;5.83;nan
8501;BME280;4288;48.484;10.024;2024-01-06T05:12:53;94519.44;;;5.93;nan
8501;BME280;4288;48.484;10.024;2024-01-06T05:15:22;94515.59;;;5.84;nan
8501;BME280;4288;48.484;10.024;2024-01-06T05:17:49;94517.44;;;5.80;nan
8501;BME280;4288;48.484;10.024;2024-01-06T05:20:17;94529.59;;;5.77;nan
8501;BME280;4288;48.484;10.024;2024-01-06T05:22:44;94525.44;;;5.83;nan
8501;BME280;4288;48.484;10.024;2024-01-06T05:25:11;94530.28;;;5.67;nan
8501;BME280;4288;48.484;10.024;2024-01-06T05:27:39;94536.38;;;5.78;nan
8501;BME280;4288;48.484;10.024;2024-01-06T05:30:07;94533.75;;;5.82;nan
8501;BME280;4288;48.484;10.024;2024-01-06T05:32:37;94542.84;;;5.81;nan
8501;BME280;4288;48.484;10.024;2024-01-06T05:35:05;94538.28;;;5.78;nan
8501;BME280;4288;48.484;10.024;2024-01-06T05:37:33;94540.22;;;5.84;nan
8501;BME280;4288;48.484;10.024;2024-01-06T05:40:00;94548.19;;;5.88;nan
8501;BME280;4288;48.484;10.024;2024-01-06T05:42:30;94552.69;;;5.80;nan
8501;BME280;4288;48.484;10.024;2024-01-06T05:44:57;94540.91;;;5.78;nan
8501;BME280;4288;48.484;10.024;2024-01-06T05:47:24;94548.50;;;5.76;nan
8501;BME280;4288;48.484;10.024;2024-01-06T05:49:53;94546.53;;;5.59;nan
8501;BME280;4288;48.484;10.024;2024-01-06T05:52:21;94549.19;;;5.62;nan
8501;BME280;4288;48.484;10.024;2024-01-06T05:54:48;94548.06;;;5.60;nan
8501;BME280;4288;48.484;10.024;2024-01-06T05:57:15;94554.44;;;5.55;nan
8501;BME280;4288;48.484;10.024;2024-01-06T05:59:44;94549.94;;;5.59;nan
8501;BME280;4288;48.484;10.024;2024-01-06T06:02:11;94553.75;;;5.69;nan
8501;BME280;4288;48.484;10.024;2024-01-06T06:04:39;94559.47;;;5.74;nan
8501;BME280;4288;48.484;10.024;2024-01-06T06:07:08;94558.75;;;5.81;nan
8501;BME280;4288;48.484;10.024;2024-01-06T06:09:35;94561.34;;;5.74;nan
8501;BME280;4288;48.484;10.024;2024-01-06T06:12:06;94562.81;;;5.61;nan
8501;BME280;4288;48.484;10.024;2024-01-06T06:14:33;94568.13;;;5.64;nan
8501;BME280;4288;48.484;10.024;2024-01-06T06:17:00;94569.66;;;5.65;nan
8501;BME280;4288;48.484;10.024;2024-01-06T06:19:28;94572.28;;;5.62;nan
8501;BME280;4288;48.484;10.024;2024-01-06T06:21:56;94574.47;;;5.49;nan
8501;BME280;4288;48.484;10.024;2024-01-06T06:24:24;94568.81;;;5.51;nan
8501;BME280;4288;48.484;10.024;2024-01-06T06:26:52;94578.31;;;5.55;nan
8501;BME280;4288;48.484;10.024;2024-01-06T06:29:19;94588.50;;;5.50;nan
8501;BME280;4288;48.484;10.024;2024-01-06T06:31:47;94586.97;;;5.52;nan
8501;BME280;4288;48.484;10.024;2024-01-06T06:34:14;94592.25;;;5.45;nan
8501;BME280;4288;48.484;10.024;2024-01-06T06:36:42;94600.22;;;5.49;nan
8501;BME280;4288;48.484;10.024;2024-01-06T06:39:09;94606.19;;;5.38;nan
8501;BME280;4288;48.484;10.024;2024-01-06T06:41:38;94612.31;;;5.46;nan
8501;BME280;4288;48.484;10.024;2024-01-06T06:44:05;94618.38;;;5.50;nan
8501;BME280;4288;48.484;10.024;2024-01-06T06:46:32;94611.19;;;5.47;nan
8501;BME280;4288;48.484;10.024;2024-01-06T06:49:00;94609.69;;;5.50;nan
8501;BME280;4288;48.484;10.024;2024-01-06T06:51:27;94608.94;;;5.49;nan
8501;BME280;4288;48.484;10.024;2024-01-06T06:53:56;94610.38;;;5.39;nan
8501;BME280;4288;48.484;10.024;2024-01-06T06:56:24;94615.69;;;5.43;nan
8501;BME280;4288;48.484;10.024;2024-01-06T06:58:53;94611.94;;;5.48;nan
8501;BME280;4288;48.484;10.024;2024-01-06T07:01:20;94613.47;;;5.49;nan
8501;BME280;4288;48.484;10.024;2024-01-06T07:03:48;94612.25;;;5.35;nan
8501;BME280;4288;48.484;10.024;2024-01-06T07:06:15;94615.31;;;5.41;nan
8501;BME280;4288;48.484;10.024;2024-01-06T07:08:42;94617.53;;;5.35;nan
8501;BME280;4288;48.484;10.024;2024-01-06T07:11:10;94614.50;;;5.37;nan
8501;BME280;4288;48.484;10.024;2024-01-06T07:13:37;94623.28;;;5.44;nan
8501;BME280;4288;48.484;10.024;2024-01-06T07:16:07;94627.44;;;5.46;nan
8501;BME280;4288;48.484;10.024;2024-01-06T07:18:35;94623.28;;;5.44;nan
8501;BME280;4288;48.484;10.024;2024-01-06T07:21:05;94619.50;;;5.46;nan
8501;BME280;4288;48.484;10.024;2024-01-06T07:23:34;94617.16;;;5.33;nan
8501;BME280;4288;48.484;10.024;2024-01-06T07:26:01;94617.56;;;5.39;nan
8501;BME280;4288;48.484;10.024;2024-01-06T07:28:29;94622.84;;;5.35;nan
8501;BME280;4288;48.484;10.024;2024-01-06T07:30:56;94637.09;;;5.20;nan
8501;BME280;4288;48.484;10.024;2024-01-06T07:33:25;94638.97;;;5.20;nan
8501;BME280;4288;48.484;10.024;2024-01-06T07:35:53;94646.50;;;5.11;nan
8501;BME280;4288;48.484;10.024;2024-01-06T07:38:20;94641.91;;;5.08;nan
8501;BME280;4288;48.484;10.024;2024-01-06T07:40:47;94652.41;;;4.97;nan
8501;BME280;4288;48.484;10.024;2024-01-06T07:43:15;94661.22;;;5.08;nan
8501;BME280;4288;48.484;10.024;2024-01-06T07:45:42;94654.50;;;5.21;nan
8501;BME280;4288;48.484;10.024;2024-01-06T07:48:09;94658.97;;;5.10;nan
8501;BME280;4288;48.484;10.024;2024-01-06T07:50:38;94652.19;;;5.13;nan
8501;BME280;4288;48.484;10.024;2024-01-06T07:53:06;94646.97;;;5.23;nan
8501;BME280;4288;48.484;10.024;2024-01-06T07:55:33;94645.78;;;5.21;nan
8501;BME280;4288;48.484;10.024;2024-01-06T07:58:00;94657.56;;;5.23;nan
8501;BME280;4288;48.484;10.024;2024-01-06T08:00:28;94657.16;;;5.21;nan
8501;BME280;4288;48.484;10.024;2024-01-06T08:02:55;94657.97;;;5.29;nan
8501;BME280;4288;48.484;10.024;2024-01-06T08:05:22;94659.97;;;5.42;nan
8501;BME280;4288;48.484;10.024;2024-01-06T08:07:51;94662.69;;;5.50;nan
8501;BME280;4288;48.484;10.024;2024-01-06T08:10:19;94664.69;;;5.63;nan
8501;BME280;4288;48.484;10.024;2024-01-06T08:12:46;94665.81;;;5.66;nan
8501;BME280;4288;48.484;10.024;2024-01-06T08:15:14;94669.00;;;5.85;nan
8501;BME280;4288;48.484;10.024;2024-01-06T08:17:42;94670.91;;;5.85;nan
8501;BME280;4288;48.484;10.024;2024-01-06T08:20:10;94680.06;;;5.94;nan
8501;BME280;4288;48.484;10.024;2024-01-06T08:22:37;94675.03;;;5.82;nan
8501;BME280;4288;48.484;10.024;2024-01-06T08:25:06;94677.34;;;5.87;nan
8501;BME280;4288;48.484;10.024;2024-01-06T08:27:34;94681.22;;;6.00;nan
8501;BME280;4288;48.484;10.024;2024-01-06T08:30:02;94685.38;;;6.01;nan
8501;BME280;4288;48.484;10.024;2024-01-06T08:32:29;94681.94;;;5.97;nan
8501;BME280;4288;48.484;10.024;2024-01-06T08:34:56;94688.09;;;6.08;nan
8501;BME280;4288;48.484;10.024;2024-01-06T08:37:24;94690.69;;;6.01;nan
8501;BME280;4288;48.484;10.024;2024-01-06T08:39:51;94687.31;;;6.08;nan
8501;BME280;4288;48.484;10.024;2024-01-06T08:42:20;94692.66;;;6.15;nan
8501;BME280;4288;48.484;10.024;2024-01-06T08:44:47;94690.00;;;6.15;nan
8501;BME280;4288;48.484;10.024;2024-01-06T08:47:15;94690.81;;;6.22;nan
8501;BME280;4288;48.484;10.024;2024-01-06T08:49:42;94698.81;;;6.29;nan
8501;BME280;4288;48.484;10.024;2024-01-06T08:52:09;94702.97;;;6.30;nan
8501;BME280;4288;48.484;10.024;2024-01-06T08:54:37;94710.16;;;6.23;nan
8501;BME280;4288;48.484;10.024;2024-01-06T08:57:04;94703.38;;;6.36;nan
8501;BME280;4288;48.484;10.024;2024-01-06T08:59:34;94705.72;;;6.52;nan
8501;BME280;4288;48.484;10.024;2024-01-06T09:02:01;94706.94;;;6.65;nan
8501;BME280;4288;48.484;10.024;2024-01-06T09:04:28;94704.63;;;6.63;nan
8501;BME280;4288;48.484;10.024;2024-01-06T09:06:56;94706.16;;;6.64;nan
8501;BME280;4288;48.484;10.024;2024-01-06T09:09:23;94703.09;;;6.55;nan
8501;BME280;4288;48.484;10.024;2024-01-06T09:11:51;94691.78;;;6.72;nan
8501;BME280;4288;48.484;10.024;2024-01-06T09:14:19;94704.31;;;6.79;nan
8501;BME280;4288;48.484;10.024;2024-01-06T09:16:48;94697.81;;;6.69;nan
8501;BME280;4288;48.484;10.024;2024-01-06T09:19:15;94705.84;;;6.80;nan
8501;BME280;4288;48.484;10.024;2024-01-06T09:21:42;94708.13;;;6.81;nan
8501;BME280;4288;48.484;10.024;2024-01-06T09:24:11;94707.00;;;6.82;nan
8501;BME280;4288;48.484;10.024;2024-01-06T09:26:38;94708.88;;;6.78;nan
8501;BME280;4288;48.484;10.024;2024-01-06T09:29:05;94707.72;;;6.72;nan
8501;BME280;4288;48.484;10.024;2024-01-06T09:31:33;94716.47;;;6.83;nan
8501;BME280;4288;48.484;10.024;2024-01-06T09:34:02;94719.50;;;6.78;nan
8501;BME280;4288;48.484;10.024;2024-01-06T09:36:30;94714.94;;;6.79;nan
8501;BME280;4288;48.484;10.024;2024-01-06T09:38:58;94724.03;;;6.74;nan
8501;BME280;4288;48.484;10.024;2024-01-06T09:41:25;94721.72;;;6.69;nan
8501;BME280;4288;48.484;10.024;2024-01-06T09:43:53;94718.34;;;6.76;nan
8501;BME280;4288;48.484;10.024;2024-01-06T09:46:24;94722.94;;;6.86;nan
8501;BME280;4288;48.484;10.024;2024-01-06T09:48:53;94724.44;;;6.87;nan
8501;BME280;4288;48.484;10.024;2024-01-06T09:51:22;94732.00;;;6.78;nan
8501;BME280;4288;48.484;10.024;2024-01-06T09:53:58;94732.78;;;6.89;nan
8501;BME280;4288;48.484;10.024;2024-01-06T09:56:27;94723.69;;;6.86;nan
8501;BME280;4288;48.484;10.024;2024-01-06T09:58:55;94721.00;;;6.83;nan
8501;BME280;4288;48.484;10.024;2024-01-06T10:01:22;94719.16;;;6.90;nan
8501;BME280;4288;48.484;10.024;2024-01-06T10:03:50;94725.97;;;6.91;nan
8501;BME280;4288;48.484;10.024;2024-01-06T10:06:18;94730.13;;;6.89;nan
8501;BME280;4288;48.484;10.024;2024-01-06T10:08:51;94724.81;;;6.78;nan
8501;BME280;4288;48.484;10.024;2024-01-06T10:11:19;94722.16;;;6.89;nan
8501;BME280;4288;48.484;10.024;2024-01-06T10:13:49;94725.59;;;6.89;nan
8501;BME280;4288;48.484;10.024;2024-01-06T10:16:17;94724.88;;;6.99;nan
8501;BME280;4288;48.484;10.024;2024-01-06T10:18:44;94730.19;;;6.96;nan
8501;BME280;4288;48.484;10.024;2024-01-06T10:21:12;94723.69;;;6.86;nan
8501;BME280;4288;48.484;10.024;2024-01-06T10:23:40;94729.34;;;6.81;nan
8501;BME280;4288;48.484;10.024;2024-01-06T10:26:13;94728.97;;;6.72;nan
8501;BME280;4288;48.484;10.024;2024-01-06T10:28:40;94724.06;;;6.85;nan
8501;BME280;4288;48.484;10.024;2024-01-06T10:31:08;94719.50;;;6.78;nan
8501;BME280;4288;48.484;10.024;2024-01-06T10:33:36;94719.50;;;6.75;nan
8501;BME280;4288;48.484;10.024;2024-01-06T10:36:04;94724.75;;;6.68;nan
8501;BME280;4288;48.484;10.024;2024-01-06T10:38:33;94715.28;;;6.67;nan
8501;BME280;4288;48.484;10.024;2024-01-06T10:41:02;94717.56;;;6.68;nan
8501;BME280;4288;48.484;10.024;2024-01-06T10:43:34;94716.84;;;6.75;nan
8501;BME280;4288;48.484;10.024;2024-01-06T10:46:07;94722.88;;;6.75;nan
8501;BME280;4288;48.484;10.024;2024-01-06T10:48:37;94727.41;;;6.68;nan
8501;BME280;4288;48.484;10.024;2024-01-06T10:51:09;94724.41;;;6.73;nan
8501;BME280;4288;48.484;10.024;2024-01-06T10:53:36;94725.19;;;6.80;nan
8501;BME280;4288;48.484;10.024;2024-01-06T10:56:05;94723.56;;;6.55;nan
8501;BME280;4288;48.484;10.024;2024-01-06T10:58:35;94730.00;;;6.54;nan
8501;BME280;4288;48.484;10.024;2024-01-06T11:01:09;94719.81;;;6.66;nan
8501;BME280;4288;48.484;10.024;2024-01-06T11:03:37;94725.47;;;6.54;nan
8501;BME280;4288;48.484;10.024;2024-01-06T11:06:06;94716.78;;;6.68;nan
8501;BME280;4288;48.484;10.024;2024-01-06T11:08:40;94721.38;;;6.78;nan
8501;BME280;4288;48.484;10.024;2024-01-06T11:11:16;94713.78;;;6.73;nan
8501;BME280;4288;48.484;10.024;2024-01-06T11:13:45;94715.34;;;6.88;nan
8501;BME280;4288;48.484;10.024;2024-01-06T11:16:33;94712.31;;;6.86;nan
8501;BME280;4288;48.484;10.024;2024-01-06T11:19:01;94712.31;;;6.82;nan
8501;BME280;4288;48.484;10.024;2024-01-06T11:21:33;94718.34;;;6.72;nan
8501;BME280;4288;48.484;10.024;2024-01-06T11:24:17;94724.03;;;6.71;nan
8501;BME280;4288;48.484;10.024;2024-01-06T11:26:49;94720.22;;;6.75;nan
8501;BME280;4288;48.484;10.024;2024-01-06T11:29:18;94722.88;;;6.68;nan
8501;BME280;4288;48.484;10.024;2024-01-06T11:32:17;94713.44;;;6.81;nan
8501;BME280;4288;48.484;10.024;2024-01-06T11:34:48;94711.88;;;6.77;nan
8501;BME280;4288;48.484;10.024;2024-01-06T11:37:18;94712.66;;;6.74;nan
8501;BME280;4288;48.484;10.024;2024-01-06T11:39:46;94708.44;;;6.69;nan
8501;BME280;4288;48.484;10.024;2024-01-06T11:42:14;94705.03;;;6.65;nan
8501;BME280;4288;48.484;10.024;2024-01-06T11:44:49;94696.72;;;6.77;nan
8501;BME280;4288;48.484;10.024;2024-01-06T11:47:18;94704.34;;;6.86;nan
8501;BME280;4288;48.484;10.024;2024-01-06T11:49:54;94703.56;;;6.82;nan
8501;BME280;4288;48.484;10.024;2024-01-06T11:52:22;94697.13;;;6.83;nan
8501;BME280;4288;48.484;10.024;2024-01-06T11:54:52;94694.47;;;6.83;nan
8501;BME280;4288;48.484;10.024;2024-01-06T11:57:19;94693.72;;;6.89;nan
8501;BME280;4288;48.484;10.024;2024-01-06T11:59:48;94698.25;;;6.85;nan
8501;BME280;4288;48.484;10.024;2024-01-06T12:02:18;94693.72;;;6.89;nan
8501;BME280;4288;48.484;10.024;2024-01-06T12:04:49;94693.00;;;7.03;nan
8501;BME280;4288;48.484;10.024;2024-01-06T12:07:17;94679.34;;;7.01;nan
8501;BME280;4288;48.484;10.024;2024-01-06T12:09:45;94682.03;;;7.11;nan
8501;BME280;4288;48.484;10.024;2024-01-06T12:12:16;94686.56;;;7.14;nan
8501;BME280;4288;48.484;10.024;2024-01-06T12:14:44;94685.06;;;7.24;nan
8501;BME280;4288;48.484;10.024;2024-01-06T12:17:13;94683.16;;;7.25;nan
8501;BME280;4288;48.484;10.024;2024-01-06T12:19:41;94684.31;;;7.31;nan
8501;BME280;4288;48.484;10.024;2024-01-06T12:22:12;94682.78;;;7.19;nan
8501;BME280;4288;48.484;10.024;2024-01-06T12:24:40;94680.88;;;7.05;nan
8501;BME280;4288;48.484;10.024;2024-01-06T12:27:08;94683.94;;;7.22;nan
8501;BME280;4288;48.484;10.024;2024-01-06T12:29:38;94685.78;;;7.10;nan
8501;BME280;4288;48.484;10.024;2024-01-06T12:32:06;94678.59;;;7.07;nan
8501;BME280;4288;48.484;10.024;2024-01-06T12:34:35;94681.59;;;7.02;nan
8501;BME280;4288;48.484;10.024;2024-01-06T12:37:03;94680.84;;;6.98;nan
8501;BME280;4288;48.484;10.024;2024-01-06T12:39:31;94674.00;;;6.94;nan
8501;BME280;4288;48.484;10.024;2024-01-06T12:41:58;94674.75;;;6.87;nan
8501;BME280;4288;48.484;10.024;2024-01-06T12:44:27;94670.59;;;6.86;nan
8501;BME280;4288;48.484;10.024;2024-01-06T12:46:54;94676.69;;;7.04;nan
8501;BME280;4288;48.484;10.024;2024-01-06T12:49:22;94674.03;;;6.97;nan
8501;BME280;4288;48.484;10.024;2024-01-06T12:51:51;94675.53;;;6.95;nan
8501;BME280;4288;48.484;10.024;2024-01-06T12:54:18;94670.59;;;7.00;nan
8501;BME280;4288;48.484;10.024;2024-01-06T12:56:46;94674.41;;;7.03;nan
8501;BME280;4288;48.484;10.024;2024-01-06T12:59:13;94667.97;;;7.07;nan
8501;BME280;4288;48.484;10.024;2024-01-06T13:01:41;94673.28;;;7.11;nan
8501;BME280;4288;48.484;10.024;2024-01-06T13:04:08;94673.28;;;7.14;nan
8501;BME280;4288;48.484;10.024;2024-01-06T13:06:36;94675.56;;;7.34;nan
8501;BME280;4288;48.484;10.024;2024-01-06T13:09:05;94684.69;;;7.33;nan
8501;BME280;4288;48.484;10.024;2024-01-06T13:11:33;94669.09;;;7.28;nan
8501;BME280;4288;48.484;10.024;2024-01-06T13:14:01;94669.88;;;7.25;nan
8501;BME280;4288;48.484;10.024;2024-01-06T13:16:29;94674.81;;;7.19;nan
8501;BME280;4288;48.484;10.024;2024-01-06T13:18:56;94681.63;;;7.16;nan
8501;BME280;4288;48.484;10.024;2024-01-06T13:21:24;94683.53;;;7.12;nan
8501;BME280;4288;48.484;10.024;2024-01-06T13:23:51;94684.25;;;7.02;nan
8501;BME280;4288;48.484;10.024;2024-01-06T13:26:20;94690.31;;;6.85;nan
8501;BME280;4288;48.484;10.024;2024-01-06T13:28:47;94696.75;;;6.84;nan
8501;BME280;4288;48.484;10.024;2024-01-06T13:31:14;94702.03;;;6.81;nan
8501;BME280;4288;48.484;10.024;2024-01-06T13:33:42;94697.50;;;6.78;nan
8501;BME280;4288;48.484;10.024;2024-01-06T13:36:09;94697.88;;;6.76;nan
8501;BME280;4288;48.484;10.024;2024-01-06T13:38:37;94698.22;;;6.68;nan
8501;BME280;4288;48.484;10.024;2024-01-06T13:41:04;94705.00;;;6.62;nan
8501;BME280;4288;48.484;10.024;2024-01-06T13:43:35;94702.75;;;6.67;nan
8501;BME280;4288;48.484;10.024;2024-01-06T13:46:02;94705.75;;;6.55;nan
8501;BME280;4288;48.484;10.024;2024-01-06T13:48:29;94711.09;;;6.62;nan
8501;BME280;4288;48.484;10.024;2024-01-06T13:50:57;94706.16;;;6.68;nan